sensor_id;sensor_type;location;lat;lon;timestamp;pressure;altitude;pressure_sealevel;temperature;humidity
41102;BME280;26845;50.190;19.178;2023-01-26T00:01:28;99388.94;;;1.23;85.47
41102;BME280;26845;50.190;19.178;2023-01-26T00:03:55;99382.04;;;1.26;85.50
41102;BME280;26845;50.190;19.178;2023-01-26T00:06:22;99384.20;;;1.22;85.44
41102;BME280;26845;50.190;19.178;2023-01-26T00:08:50;99378.41;;;1.18;85.41
41102;BME280;26845;50.190;19.178;2023-01-26T00:11:22;99381.75;;;1.20;85.59
41102;BME280;26845;50.190;19.178;2023-01-26T00:13:49;99382.98;;;1.21;85.53
41102;BME280;26845;50.190;19.178;2023-01-26T00:16:15;99380.41;;;1.24;85.62
41102;BME280;26845;50.190;19.178;2023-01-26T00:18:42;99381.19;;;1.25;85.27
41102;BME280;26845;50.190;19.178;2023-01-26T00:21:14;99374.52;;;1.17;84.82
41102;BME280;26845;50.190;19.178;2023-01-26T00:23:40;99371.70;;;0.95;84.44
41102;BME280;26845;50.190;19.178;2023-01-26T00:26:09;99370.74;;;0.84;84.88
41102;BME280;26845;50.190;19.178;2023-01-26T00:28:35;99366.91;;;0.70;84.60
41102;BME280;26845;50.190;19.178;2023-01-26T00:31:07;99367.70;;;0.69;85.32
41102;BME280;26845;50.190;19.178;2023-01-26T00:33:35;99357.41;;;0.74;85.39
41102;BME280;26845;50.190;19.178;2023-01-26T00:36:01;99352.14;;;0.79;85.61
41102;BME280;26845;50.190;19.178;2023-01-26T00:38:27;99357.53;;;0.81;85.23
41102;BME280;26845;50.190;19.178;2023-01-26T00:40:54;99356.01;;;0.77;85.12
41102;BME280;26845;50.190;19.178;2023-01-26T00:43:20;99356.90;;;0.75;85.35
41102;BME280;26845;50.190;19.178;2023-01-26T00:45:48;99354.16;;;0.75;85.26
41102;BME280;26845;50.190;19.178;2023-01-26T00:48:14;99352.98;;;0.73;85.08
41102;BME280;26845;50.190;19.178;2023-01-26T00:50:40;99347.33;;;0.75;85.32
41102;BME280;26845;50.190;19.178;2023-01-26T00:53:09;99343.38;;;0.77;85.35
41102;BME280;26845;50.190;19.178;2023-01-26T00:55:35;99343.66;;;0.73;84.96
41102;BME280;26845;50.190;19.178;2023-01-26T00:58:03;99347.45;;;0.68;84.76
41102;BME280;26845;50.190;19.178;2023-01-26T01:00:30;99349.34;;;0.62;84.83
41102;BME280;26845;50.190;19.178;2023-01-26T01:02:58;99349.30;;;0.55;84.76
41102;BME280;26845;50.190;19.178;2023-01-26T01:05:27;99347.42;;;0.51;85.00
41102;BME280;26845;50.190;19.178;2023-01-26T01:07:53;99344.73;;;0.55;85.05
41102;BME280;26845;50.190;19.178;2023-01-26T01:10:19;99345.39;;;0.59;85.15
41102;BME280;26845;50.190;19.178;2023-01-26T01:12:45;99346.21;;;0.67;85.33
41102;BME280;26845;50.190;19.178;2023-01-26T01:15:12;99342.30;;;0.74;85.38
41102;BME280;26845;50.190;19.178;2023-01-26T01:17:38;99338.11;;;0.77;85.47
41102;BME280;26845;50.190;19.178;2023-01-26T01:20:05;99335.95;;;0.78;84.91
41102;BME280;26845;50.190;19.178;2023-01-26T01:22:35;99330.41;;;0.65;84.44
41102;BME280;26845;50.190;19.178;2023-01-26T01:25:02;99326.85;;;0.58;84.69
41102;BME280;26845;50.190;19.178;2023-01-26T01:27:29;99326.48;;;0.65;85.16
41102;BME280;26845;50.190;19.178;2023-01-26T01:29:55;99324.42;;;0.71;85.27
41102;BME280;26845;50.190;19.178;2023-01-26T01:32:22;99319.73;;;0.74;85.14
41102;BME280;26845;50.190;19.178;2023-01-26T01:34:50;99317.58;;;0.79;85.24
41102;BME280;26845;50.190;19.178;2023-01-26T01:37:16;99315.48;;;0.83;85.47
41102;BME280;26845;50.190;19.178;2023-01-26T01:39:42;99314.02;;;0.88;85.42
41102;BME280;26845;50.190;19.178;2023-01-26T01:42:08;99311.81;;;0.93;85.25
41102;BME280;26845;50.190;19.178;2023-01-26T01:44:36;99305.67;;;0.95;85.17
41102;BME280;26845;50.190;19.178;2023-01-26T01:47:03;99308.21;;;0.99;85.17
41102;BME280;26845;50.190;19.178;2023-01-26T01:49:37;99304.63;;;1.03;85.11
41102;BME280;26845;50.190;19.178;2023-01-26T01:52:18;99311.62;;;1.05;85.13
41102;BME280;26845;50.190;19.178;2023-01-26T01:54:57;99307.73;;;1.05;85.18
41102;BME280;26845;50.190;19.178;2023-01-26T01:57:31;99307.11;;;1.04;85.01
41102;BME280;26845;50.190;19.178;2023-01-26T02:00:16;99307.08;;;1.05;85.09
41102;BME280;26845;50.190;19.178;2023-01-26T02:02:45;99305.48;;;1.08;85.22
41102;BME280;26845;50.190;19.178;2023-01-26T02:05:47;99307.33;;;1.09;85.18
41102;BME280;26845;50.190;19.178;2023-01-26T02:08:17;99307.30;;;1.14;85.09
41102;BME280;26845;50.190;19.178;2023-01-26T02:10:46;99310.98;;;1.08;84.47
41102;BME280;26845;50.190;19.178;2023-01-26T02:13:14;99304.44;;;0.96;84.37
41102;BME280;26845;50.190;19.178;2023-01-26T02:15:41;99301.73;;;0.82;84.26
41102;BME280;26845;50.190;19.178;2023-01-26T02:18:07;99303.55;;;0.68;83.91
41102;BME280;26845;50.190;19.178;2023-01-26T02:20:51;99302.84;;;0.46;83.96
41102;BME280;26845;50.190;19.178;2023-01-26T02:26:22;99306.26;;;0.37;84.29
41102;BME280;26845;50.190;19.178;2023-01-26T02:28:50;99307.46;;;0.42;84.95
41102;BME280;26845;50.190;19.178;2023-01-26T02:31:17;99300.52;;;0.49;85.08
41102;BME280;26845;50.190;19.178;2023-01-26T02:33:43;99297.46;;;0.57;85.13
41102;BME280;26845;50.190;19.178;2023-01-26T02:36:17;99299.50;;;0.65;85.36
41102;BME280;26845;50.190;19.178;2023-01-26T02:41:16;99288.53;;;0.77;85.05
41102;BME280;26845;50.190;19.178;2023-01-26T02:44:05;99282.48;;;0.85;85.16
41102;BME280;26845;50.190;19.178;2023-01-26T02:46:32;99281.41;;;0.92;85.14
41102;BME280;26845;50.190;19.178;2023-01-26T02:48:58;99275.88;;;0.94;85.18
41102;BME280;26845;50.190;19.178;2023-01-26T02:51:43;99269.20;;;1.01;85.20
41102;BME280;26845;50.190;19.178;2023-01-26T02:54:09;99264.77;;;1.09;85.44
41102;BME280;26845;50.190;19.178;2023-01-26T02:56:54;99258.60;;;1.15;85.26
41102;BME280;26845;50.190;19.178;2023-01-26T02:59:22;99252.56;;;1.11;85.03
41102;BME280;26845;50.190;19.178;2023-01-26T03:01:49;99248.54;;;1.07;84.90
41102;BME280;26845;50.190;19.178;2023-01-26T03:04:15;99247.54;;;1.00;84.86
41102;BME280;26845;50.190;19.178;2023-01-26T03:06:41;99238.97;;;0.97;84.91
41102;BME280;26845;50.190;19.178;2023-01-26T03:09:09;99235.77;;;0.90;84.85
41102;BME280;26845;50.190;19.178;2023-01-26T03:11:35;99233.58;;;0.87;84.76
41102;BME280;26845;50.190;19.178;2023-01-26T03:14:16;99231.01;;;0.87;84.84
41102;BME280;26845;50.190;19.178;2023-01-26T03:16:42;99231.19;;;0.91;85.07
41102;BME280;26845;50.190;19.178;2023-01-26T03:19:11;99225.32;;;0.96;84.97
41102;BME280;26845;50.190;19.178;2023-01-26T03:21:57;99223.21;;;1.00;85.09
41102;BME280;26845;50.190;19.178;2023-01-26T03:24:41;99225.10;;;1.04;85.07
41102;BME280;26845;50.190;19.178;2023-01-26T03:27:33;99226.89;;;1.05;85.02
41102;BME280;26845;50.190;19.178;2023-01-26T03:30:00;99228.85;;;1.05;84.96
41102;BME280;26845;50.190;19.178;2023-01-26T03:32:26;99224.86;;;1.03;84.86
41102;BME280;26845;50.190;19.178;2023-01-26T03:34:52;99225.85;;;0.98;84.79
41102;BME280;26845;50.190;19.178;2023-01-26T03:37:18;99226.98;;;0.93;84.55
41102;BME280;26845;50.190;19.178;2023-01-26T03:39:49;99226.79;;;0.86;84.66
41102;BME280;26845;50.190;19.178;2023-01-26T03:42:34;99227.11;;;0.79;84.65
41102;BME280;26845;50.190;19.178;2023-01-26T03:45:20;99227.62;;;0.77;84.88
41102;BME280;26845;50.190;19.178;2023-01-26T03:48:06;99224.04;;;0.81;85.03
41102;BME280;26845;50.190;19.178;2023-01-26T03:50:51;99220.44;;;0.84;85.12
41102;BME280;26845;50.190;19.178;2023-01-26T03:53:35;99211.51;;;0.84;85.12
41102;BME280;26845;50.190;19.178;2023-01-26T03:56:19;99207.88;;;0.88;85.28
41102;BME280;26845;50.190;19.178;2023-01-26T03:59:02;99207.02;;;0.95;85.35
41102;BME280;26845;50.190;19.178;2023-01-26T04:01:38;99202.26;;;1.01;85.37
41102;BME280;26845;50.190;19.178;2023-01-26T04:04:06;99196.64;;;1.04;85.28
41102;BME280;26845;50.190;19.178;2023-01-26T04:06:52;99196.57;;;1.06;85.16
41102;BME280;26845;50.190;19.178;2023-01-26T04:09:36;99194.73;;;1.02;84.91
41102;BME280;26845;50.190;19.178;2023-01-26T04:12:04;99193.27;;;0.94;84.76
41102;BME280;26845;50.190;19.178;2023-01-26T04:14:30;99193.80;;;0.85;84.81
41102;BME280;26845;50.190;19.178;2023-01-26T04:17:15;99193.23;;;0.81;84.98
41102;BME280;26845;50.190;19.178;2023-01-26T04:20:00;99197.11;;;0.84;85.24
41102;BME280;26845;50.190;19.178;2023-01-26T04:22:44;99193.84;;;0.89;85.34
41102;BME280;26845;50.190;19.178;2023-01-26T04:25:13;99189.08;;;0.93;85.14
41102;BME280;26845;50.190;19.178;2023-01-26T04:27:39;99185.51;;;0.87;84.90
41102;BME280;26845;50.190;19.178;2023-01-26T04:30:07;99183.63;;;0.82;84.88
41102;BME280;26845;50.190;19.178;2023-01-26T04:32:34;99180.87;;;0.73;84.77
41102;BME280;26845;50.190;19.178;2023-01-26T04:35:03;99178.61;;;0.69;84.94
41102;BME280;26845;50.190;19.178;2023-01-26T04:37:29;99178.91;;;0.67;84.89
41102;BME280;26845;50.190;19.178;2023-01-26T04:39:56;99180.55;;;0.67;85.22
41102;BME280;26845;50.190;19.178;2023-01-26T04:42:22;99175.52;;;0.71;85.37
41102;BME280;26845;50.190;19.178;2023-01-26T04:44:52;99174.23;;;0.75;85.38
41102;BME280;26845;50.190;19.178;2023-01-26T04:47:20;99175.05;;;0.77;85.11
41102;BME280;26845;50.190;19.178;2023-01-26T04:49:46;99173.05;;;0.73;85.05
41102;BME280;26845;50.190;19.178;2023-01-26T04:52:13;99171.33;;;0.72;84.82
41102;BME280;26845;50.190;19.178;2023-01-26T04:54:39;99167.19;;;0.64;84.77
41102;BME280;26845;50.190;19.178;2023-01-26T04:57:06;99169.19;;;0.57;84.74
41102;BME280;26845;50.190;19.178;2023-01-26T04:59:33;99164.80;;;0.52;84.80
41102;BME280;26845;50.190;19.178;2023-01-26T05:01:59;99162.27;;;0.48;84.84
41102;BME280;26845;50.190;19.178;2023-01-26T05:04:26;99158.60;;;0.42;84.83
41102;BME280;26845;50.190;19.178;2023-01-26T05:06:53;99157.37;;;0.39;84.89
41102;BME280;26845;50.190;19.178;2023-01-26T05:09:19;99152.23;;;0.36;84.92
41102;BME280;26845;50.190;19.178;2023-01-26T05:11:46;99153.00;;;0.38;85.11
41102;BME280;26845;50.190;19.178;2023-01-26T05:14:12;99149.75;;;0.43;85.24
41102;BME280;26845;50.190;19.178;2023-01-26T05:16:38;99146.27;;;0.49;85.20
41102;BME280;26845;50.190;19.178;2023-01-26T05:19:04;99141.62;;;0.55;85.25
41102;BME280;26845;50.190;19.178;2023-01-26T05:21:30;99142.20;;;0.62;85.36
41102;BME280;26845;50.190;19.178;2023-01-26T05:23:57;99140.69;;;0.69;85.26
41102;BME280;26845;50.190;19.178;2023-01-26T05:26:24;99143.22;;;0.73;85.13
41102;BME280;26845;50.190;19.178;2023-01-26T05:28:49;99146.45;;;0.75;85.27
41102;BME280;26845;50.190;19.178;2023-01-26T05:31:16;99146.48;;;0.76;85.24
41102;BME280;26845;50.190;19.178;2023-01-26T05:33:43;99144.53;;;0.81;85.22
41102;BME280;26845;50.190;19.178;2023-01-26T05:36:10;99141.81;;;0.85;85.20
41102;BME280;26845;50.190;19.178;2023-01-26T05:38:36;99145.54;;;0.88;85.26
41102;BME280;26845;50.190;19.178;2023-01-26T05:41:02;99149.41;;;0.91;85.10
41102;BME280;26845;50.190;19.178;2023-01-26T05:43:28;99146.02;;;0.94;85.17
41102;BME280;26845;50.190;19.178;2023-01-26T05:45:55;99145.32;;;0.97;85.09
41102;BME280;26845;50.190;19.178;2023-01-26T05:48:21;99144.42;;;0.96;85.05
41102;BME280;26845;50.190;19.178;2023-01-26T05:50:47;99148.65;;;0.88;84.79
41102;BME280;26845;50.190;19.178;2023-01-26T05:53:13;99148.73;;;0.78;84.62
41102;BME280;26845;50.190;19.178;2023-01-26T05:55:39;99153.02;;;0.72;84.63
41102;BME280;26845;50.190;19.178;2023-01-26T05:58:06;99154.46;;;0.63;84.53
41102;BME280;26845;50.190;19.178;2023-01-26T06:00:33;99153.52;;;0.62;84.96
41102;BME280;26845;50.190;19.178;2023-01-26T06:02:59;99153.75;;;0.69;85.27
41102;BME280;26845;50.190;19.178;2023-01-26T06:05:25;99155.98;;;0.76;85.45
41102;BME280;26845;50.190;19.178;2023-01-26T06:07:53;99152.22;;;0.79;85.07
41102;BME280;26845;50.190;19.178;2023-01-26T06:10:18;99150.08;;;0.75;84.97
41102;BME280;26845;50.190;19.178;2023-01-26T06:12:44;99150.70;;;0.81;85.48
41102;BME280;26845;50.190;19.178;2023-01-26T06:15:11;99153.79;;;0.88;85.48
41102;BME280;26845;50.190;19.178;2023-01-26T06:17:37;99150.23;;;0.94;85.48
41102;BME280;26845;50.190;19.178;2023-01-26T06:20:04;99148.64;;;0.99;85.43
41102;BME280;26845;50.190;19.178;2023-01-26T06:22:30;99141.29;;;1.04;85.39
41102;BME280;26845;50.190;19.178;2023-01-26T06:24:57;99138.54;;;1.10;85.86
41102;BME280;26845;50.190;19.178;2023-01-26T06:27:24;99142.00;;;1.17;85.49
41102;BME280;26845;50.190;19.178;2023-01-26T06:29:52;99143.93;;;1.27;86.70
41102;BME280;26845;50.190;19.178;2023-01-26T06:32:18;99145.06;;;1.33;85.53
41102;BME280;26845;50.190;19.178;2023-01-26T06:34:45;99145.27;;;1.17;84.62
41102;BME280;26845;50.190;19.178;2023-01-26T06:37:11;99148.55;;;0.94;84.26
41102;BME280;26845;50.190;19.178;2023-01-26T06:39:39;99145.24;;;0.91;84.78
41102;BME280;26845;50.190;19.178;2023-01-26T06:42:06;99138.05;;;0.95;85.13
41102;BME280;26845;50.190;19.178;2023-01-26T06:44:32;99132.94;;;0.97;85.11
41102;BME280;26845;50.190;19.178;2023-01-26T06:46:58;99130.46;;;0.93;85.17
41102;BME280;26845;50.190;19.178;2023-01-26T06:49:27;99129.41;;;0.89;85.10
41102;BME280;26845;50.190;19.178;2023-01-26T06:54:24;99129.58;;;0.84;84.94
41102;BME280;26845;50.190;19.178;2023-01-26T06:56:50;99128.63;;;0.80;85.02
41102;BME280;26845;50.190;19.178;2023-01-26T06:59:17;99128.06;;;0.82;85.24
41102;BME280;26845;50.190;19.178;2023-01-26T07:01:44;99119.41;;;0.85;85.30
41102;BME280;26845;50.190;19.178;2023-01-26T07:04:15;99117.55;;;0.87;85.20
41102;BME280;26845;50.190;19.178;2023-01-26T07:06:43;99121.56;;;0.85;84.77
41102;BME280;26845;50.190;19.178;2023-01-26T07:09:09;99130.42;;;0.70;84.37
41102;BME280;26845;50.190;19.178;2023-01-26T07:11:36;99129.70;;;0.64;84.86
41102;BME280;26845;50.190;19.178;2023-01-26T07:14:01;99122.75;;;0.66;85.07
41102;BME280;26845;50.190;19.178;2023-01-26T07:16:27;99122.27;;;0.70;85.04
41102;BME280;26845;50.190;19.178;2023-01-26T07:18:54;99120.17;;;0.72;85.36
41102;BME280;26845;50.190;19.178;2023-01-26T07:21:20;99118.61;;;0.76;85.34
41102;BME280;26845;50.190;19.178;2023-01-26T07:23:48;99117.61;;;0.81;85.21
41102;BME280;26845;50.190;19.178;2023-01-26T07:26:15;99116.73;;;0.84;85.33
41102;BME280;26845;50.190;19.178;2023-01-26T07:28:41;99116.36;;;0.82;85.05
41102;BME280;26845;50.190;19.178;2023-01-26T07:31:09;99114.63;;;0.83;85.08
41102;BME280;26845;50.190;19.178;2023-01-26T07:33:35;99114.86;;;0.86;85.24
41102;BME280;26845;50.190;19.178;2023-01-26T07:36:02;99113.27;;;0.87;85.17
41102;BME280;26845;50.190;19.178;2023-01-26T07:38:29;99116.59;;;0.92;85.42
41102;BME280;26845;50.190;19.178;2023-01-26T07:40:56;99114.00;;;0.93;85.21
41102;BME280;26845;50.190;19.178;2023-01-26T07:43:21;99119.08;;;0.94;85.22
41102;BME280;26845;50.190;19.178;2023-01-26T07:45:50;99117.86;;;0.98;85.36
41102;BME280;26845;50.190;19.178;2023-01-26T07:48:16;99112.35;;;1.03;85.22
41102;BME280;26845;50.190;19.178;2023-01-26T07:50:44;99112.42;;;1.01;85.14
41102;BME280;26845;50.190;19.178;2023-01-26T07:53:10;99117.34;;;1.00;85.05
41102;BME280;26845;50.190;19.178;2023-01-26T07:55:39;99117.45;;;0.94;84.78
41102;BME280;26845;50.190;19.178;2023-01-26T07:58:05;99121.98;;;0.87;85.79
41102;BME280;26845;50.190;19.178;2023-01-26T08:00:31;99124.71;;;0.94;85.55
41102;BME280;26845;50.190;19.178;2023-01-26T08:02:57;99121.77;;;0.92;85.18
41102;BME280;26845;50.190;19.178;2023-01-26T08:05:23;99116.81;;;0.95;85.03
41102;BME280;26845;50.190;19.178;2023-01-26T08:07:50;99115.30;;;0.90;85.03
41102;BME280;26845;50.190;19.178;2023-01-26T08:10:18;99115.16;;;0.92;85.27
41102;BME280;26845;50.190;19.178;2023-01-26T08:12:43;99114.56;;;0.98;85.43
41102;BME280;26845;50.190;19.178;2023-01-26T08:15:10;99116.55;;;1.05;85.37
41102;BME280;26845;50.190;19.178;2023-01-26T08:17:36;99114.52;;;1.07;85.21
41102;BME280;26845;50.190;19.178;2023-01-26T08:20:03;99114.50;;;1.13;85.30
41102;BME280;26845;50.190;19.178;2023-01-26T08:22:29;99108.08;;;1.16;85.14
41102;BME280;26845;50.190;19.178;2023-01-26T08:24:55;99106.19;;;1.14;84.93
41102;BME280;26845;50.190;19.178;2023-01-26T08:27:21;99105.64;;;1.17;85.32
41102;BME280;26845;50.190;19.178;2023-01-26T08:29:47;99105.69;;;1.16;85.02
41102;BME280;26845;50.190;19.178;2023-01-26T08:32:13;99099.95;;;1.11;84.96
41102;BME280;26845;50.190;19.178;2023-01-26T08:34:40;99100.55;;;1.13;85.03
41102;BME280;26845;50.190;19.178;2023-01-26T08:37:07;99103.33;;;1.13;84.83
41102;BME280;26845;50.190;19.178;2023-01-26T08:39:34;99106.52;;;1.10;84.67
41102;BME280;26845;50.190;19.178;2023-01-26T08:42:00;99108.23;;;1.05;84.60
41102;BME280;26845;50.190;19.178;2023-01-26T08:44:26;99107.92;;;1.01;84.44
41102;BME280;26845;50.190;19.178;2023-01-26T08:46:53;99109.58;;;1.01;84.76
41102;BME280;26845;50.190;19.178;2023-01-26T08:49:18;99111.84;;;1.02;84.88
41102;BME280;26845;50.190;19.178;2023-01-26T08:51:45;99109.11;;;0.99;84.78
41102;BME280;26845;50.190;19.178;2023-01-26T08:54:13;99102.04;;;0.92;84.74
41102;BME280;26845;50.190;19.178;2023-01-26T08:56:38;99103.83;;;0.88;84.55
41102;BME280;26845;50.190;19.178;2023-01-26T08:59:04;99107.95;;;0.80;84.57
41102;BME280;26845;50.190;19.178;2023-01-26T09:01:31;99111.16;;;0.79;84.73
41102;BME280;26845;50.190;19.178;2023-01-26T09:03:57;99115.39;;;0.75;84.77
41102;BME280;26845;50.190;19.178;2023-01-26T09:06:25;99120.80;;;0.71;84.70
41102;BME280;26845;50.190;19.178;2023-01-26T09:08:52;99118.48;;;0.76;85.11
41102;BME280;26845;50.190;19.178;2023-01-26T09:11:19;99112.15;;;0.82;85.07
41102;BME280;26845;50.190;19.178;2023-01-26T09:13:51;99113.13;;;0.87;85.11
41102;BME280;26845;50.190;19.178;2023-01-26T09:16:23;99113.63;;;0.95;85.18
41102;BME280;26845;50.190;19.178;2023-01-26T09:18:52;99110.87;;;0.99;85.20
41102;BME280;26845;50.190;19.178;2023-01-26T09:21:19;99112.57;;;1.06;85.14
41102;BME280;26845;50.190;19.178;2023-01-26T09:23:46;99114.42;;;1.09;85.21
41102;BME280;26845;50.190;19.178;2023-01-26T09:26:12;99109.13;;;1.09;84.90
41102;BME280;26845;50.190;19.178;2023-01-26T09:28:38;99107.85;;;1.12;85.03
41102;BME280;26845;50.190;19.178;2023-01-26T09:31:06;99106.73;;;1.13;84.80
41102;BME280;26845;50.190;19.178;2023-01-26T09:33:33;99107.19;;;1.15;84.56
41102;BME280;26845;50.190;19.178;2023-01-26T09:36:05;99101.66;;;1.12;84.67
41102;BME280;26845;50.190;19.178;2023-01-26T09:38:32;99097.23;;;1.16;84.71
41102;BME280;26845;50.190;19.178;2023-01-26T09:43:56;99089.41;;;1.16;84.86
41102;BME280;26845;50.190;19.178;2023-01-26T09:46:33;99091.30;;;1.21;84.80
41102;BME280;26845;50.190;19.178;2023-01-26T09:49:12;99086.61;;;1.15;84.59
41102;BME280;26845;50.190;19.178;2023-01-26T09:54:37;99072.81;;;1.22;84.81
41102;BME280;26845;50.190;19.178;2023-01-26T09:57:14;99074.67;;;1.22;84.67
41102;BME280;26845;50.190;19.178;2023-01-26T09:59:47;99070.80;;;1.29;84.90
41102;BME280;26845;50.190;19.178;2023-01-26T10:05:46;99071.08;;;1.38;84.87
41102;BME280;26845;50.190;19.178;2023-01-26T10:08:17;99071.96;;;1.34;84.83
41102;BME280;26845;50.190;19.178;2023-01-26T10:10:53;99073.05;;;1.38;84.90
41102;BME280;26845;50.190;19.178;2023-01-26T10:13:22;99065.39;;;1.42;84.42
41102;BME280;26845;50.190;19.178;2023-01-26T10:16:05;99062.88;;;1.31;84.17
41102;BME280;26845;50.190;19.178;2023-01-26T10:18:36;99060.20;;;1.35;84.76
41102;BME280;26845;50.190;19.178;2023-01-26T10:21:06;99061.35;;;1.39;84.54
41102;BME280;26845;50.190;19.178;2023-01-26T10:23:34;99061.86;;;1.39;84.09
41102;BME280;26845;50.190;19.178;2023-01-26T10:28:40;99055.09;;;1.37;84.58
41102;BME280;26845;50.190;19.178;2023-01-26T10:31:23;99055.09;;;1.38;84.50
41102;BME280;26845;50.190;19.178;2023-01-26T10:34:17;99052.51;;;1.41;84.12
41102;BME280;26845;50.190;19.178;2023-01-26T10:36:48;99048.04;;;1.49;84.54
41102;BME280;26845;50.190;19.178;2023-01-26T10:39:16;99046.27;;;1.53;84.41
41102;BME280;26845;50.190;19.178;2023-01-26T10:44:47;99044.07;;;1.63;84.35
41102;BME280;26845;50.190;19.178;2023-01-26T10:47:16;99044.77;;;1.67;84.32
41102;BME280;26845;50.190;19.178;2023-01-26T10:49:43;99042.83;;;1.65;84.06
41102;BME280;26845;50.190;19.178;2023-01-26T10:52:20;99040.27;;;1.70;84.29
41102;BME280;26845;50.190;19.178;2023-01-26T10:54:47;99033.65;;;1.80;84.55
41102;BME280;26845;50.190;19.178;2023-01-26T10:57:19;99035.24;;;1.85;84.54
41102;BME280;26845;50.190;19.178;2023-01-26T11:00:05;99034.23;;;1.94;84.72
41102;BME280;26845;50.190;19.178;2023-01-26T11:02:35;99030.45;;;2.05;84.72
41102;BME280;26845;50.190;19.178;2023-01-26T11:10:23;99024.92;;;2.19;83.71
41102;BME280;26845;50.190;19.178;2023-01-26T11:12:50;99025.35;;;2.18;83.78
41102;BME280;26845;50.190;19.178;2023-01-26T11:18:00;99025.45;;;2.27;83.86
41102;BME280;26845;50.190;19.178;2023-01-26T11:40:54;98995.66;;;2.27;82.98
41102;BME280;26845;50.190;19.178;2023-01-26T11:49:19;98978.83;;;2.31;83.34
41102;BME280;26845;50.190;19.178;2023-01-26T11:59:52;98966.36;;;2.19;82.31
41102;BME280;26845;50.190;19.178;2023-01-26T12:02:31;98962.56;;;2.13;82.37
41102;BME280;26845;50.190;19.178;2023-01-26T12:05:01;98960.93;;;2.05;82.29
41102;BME280;26845;50.190;19.178;2023-01-26T12:07:35;98958.38;;;1.96;82.01
41102;BME280;26845;50.190;19.178;2023-01-26T12:10:24;98953.58;;;1.98;83.28
41102;BME280;26845;50.190;19.178;2023-01-26T12:13:28;98951.52;;;2.11;83.14
41102;BME280;26845;50.190;19.178;2023-01-26T12:15:55;98949.11;;;2.23;83.25
41102;BME280;26845;50.190;19.178;2023-01-26T12:18:33;98945.25;;;2.32;83.05
41102;BME280;26845;50.190;19.178;2023-01-26T12:21:07;98944.46;;;2.35;82.71
41102;BME280;26845;50.190;19.178;2023-01-26T12:23:49;98941.03;;;2.44;83.08
41102;BME280;26845;50.190;19.178;2023-01-26T12:26:18;98943.95;;;2.51;82.96
41102;BME280;26845;50.190;19.178;2023-01-26T12:31:34;98937.19;;;2.50;81.83
41102;BME280;26845;50.190;19.178;2023-01-26T12:34:08;98930.15;;;2.37;81.76
41102;BME280;26845;50.190;19.178;2023-01-26T12:39:46;98937.59;;;2.22;82.22
41102;BME280;26845;50.190;19.178;2023-01-26T12:44:58;98932.47;;;2.38;82.38
41102;BME280;26845;50.190;19.178;2023-01-26T12:50:10;98925.77;;;2.37;82.51
41102;BME280;26845;50.190;19.178;2023-01-26T12:57:49;98918.42;;;2.56;82.54
41102;BME280;26845;50.190;19.178;2023-01-26T13:00:23;98918.30;;;2.61;82.55
41102;BME280;26845;50.190;19.178;2023-01-26T13:02:56;98915.85;;;2.65;82.00
41102;BME280;26845;50.190;19.178;2023-01-26T13:05:34;98912.13;;;2.39;80.61
41102;BME280;26845;50.190;19.178;2023-01-26T13:11:05;98911.77;;;1.97;81.48
41102;BME280;26845;50.190;19.178;2023-01-26T13:18:54;98925.34;;;1.74;82.16
41102;BME280;26845;50.190;19.178;2023-01-26T13:26:45;98918.21;;;2.05;82.71
41102;BME280;26845;50.190;19.178;2023-01-26T13:29:27;98917.28;;;2.14;82.45
41102;BME280;26845;50.190;19.178;2023-01-26T13:34:55;98917.23;;;2.27;82.41
41102;BME280;26845;50.190;19.178;2023-01-26T13:37:35;98918.85;;;2.30;82.55
41102;BME280;26845;50.190;19.178;2023-01-26T13:40:22;98920.03;;;2.40;82.61
41102;BME280;26845;50.190;19.178;2023-01-26T13:45:45;98912.15;;;2.48;82.07
41102;BME280;26845;50.190;19.178;2023-01-26T13:48:29;98916.19;;;2.34;81.36
41102;BME280;26845;50.190;19.178;2023-01-26T13:51:01;98918.45;;;2.12;81.12
41102;BME280;26845;50.190;19.178;2023-01-26T13:53:38;98914.98;;;1.94;80.88
41102;BME280;26845;50.190;19.178;2023-01-26T13:56:22;98910.30;;;1.87;81.70
41102;BME280;26845;50.190;19.178;2023-01-26T13:58:49;98908.30;;;1.85;81.79
41102;BME280;26845;50.190;19.178;2023-01-26T14:01:15;98909.80;;;1.92;82.10
41102;BME280;26845;50.190;19.178;2023-01-26T14:03:42;98905.30;;;1.96;81.74
41102;BME280;26845;50.190;19.178;2023-01-26T14:06:19;98906.71;;;1.95;81.73
41102;BME280;26845;50.190;19.178;2023-01-26T14:08:52;98907.02;;;1.98;82.06
41102;BME280;26845;50.190;19.178;2023-01-26T14:11:22;98907.25;;;2.10;82.25
41102;BME280;26845;50.190;19.178;2023-01-26T14:13:51;98904.65;;;2.19;82.15
41102;BME280;26845;50.190;19.178;2023-01-26T14:16:27;98900.75;;;2.30;82.08
41102;BME280;26845;50.190;19.178;2023-01-26T14:19:17;98901.66;;;2.41;82.35
41102;BME280;26845;50.190;19.178;2023-01-26T14:22:09;98901.15;;;2.51;82.09
41102;BME280;26845;50.190;19.178;2023-01-26T14:24:37;98901.91;;;2.58;81.82
41102;BME280;26845;50.190;19.178;2023-01-26T14:30:28;98902.33;;;2.62;81.67
41102;BME280;26845;50.190;19.178;2023-01-26T14:33:04;98910.13;;;2.63;81.59
41102;BME280;26845;50.190;19.178;2023-01-26T14:35:31;98911.96;;;2.65;81.90
41102;BME280;26845;50.190;19.178;2023-01-26T14:38:16;98905.41;;;2.69;81.92
41102;BME280;26845;50.190;19.178;2023-01-26T14:40:48;98901.97;;;2.72;81.62
41102;BME280;26845;50.190;19.178;2023-01-26T14:43:15;98904.66;;;2.59;81.04
41102;BME280;26845;50.190;19.178;2023-01-26T14:46:00;98902.02;;;2.53;81.37
41102;BME280;26845;50.190;19.178;2023-01-26T14:48:32;98901.19;;;2.50;81.40
41102;BME280;26845;50.190;19.178;2023-01-26T14:51:00;98894.63;;;2.52;81.56
41102;BME280;26845;50.190;19.178;2023-01-26T14:53:27;98892.80;;;2.56;81.59
41102;BME280;26845;50.190;19.178;2023-01-26T14:55:54;98893.92;;;2.59;81.56
41102;BME280;26845;50.190;19.178;2023-01-26T14:58:28;98893.84;;;2.57;81.20
41102;BME280;26845;50.190;19.178;2023-01-26T15:00:56;98893.23;;;2.49;81.21